Time;durP1;ratioP1;P1;durP2;ratioP2;P2;SDS_P1;SDS_P2;PMS_P1;PMS_P2;Temp;Humidity;BMP_temperature;BMP_pressure;BME280_temperature;BME280_humidity;BME280_pressure;Samples;Min_cycle;Max_cycle;Signal;HPM_P1;HPM_P2
2023/05/01 00:02:18;;;;;;;7.50;3.60;;;10.90;50.50;;;;;;5100027;28;20386;-76
2023/05/01 00:04:44;;;;;;;8.67;4.40;;;10.80;51.00;;;;;;5102345;28;20380;-75
2023/05/01 00:07:12;;;;;;;12.10;5.00;;;10.80;51.70;;;;;;5101512;28;20405;-74
2023/05/01 00:09:38;;;;;;;9.27;4.47;;;10.80;52.70;;;;;;5099685;28;20390;-73
2023/05/01 00:12:04;;;;;;;7.10;4.20;;;10.70;54.90;;;;;;5097321;28;20382;-74
2023/05/01 00:14:29;;;;;;;10.23;4.57;;;10.50;56.40;;;;;;5095826;28;20924;-73
2023/05/01 00:16:55;;;;;;;6.93;4.20;;;10.40;57.70;;;;;;5094702;28;21766;-72
2023/05/01 00:19:20;;;;;;;9.40;4.22;;;10.30;59.10;;;;;;5094391;28;20404;-73
2023/05/01 00:21:47;;;;;;;7.60;3.95;;;10.20;60.10;;;;;;5094894;28;20393;-73
2023/05/01 00:24:15;;;;;;;10.05;4.20;;;10.10;60.90;;;;;;5093949;28;20389;-71
2023/05/01 00:26:41;;;;;;;9.57;4.90;;;10.10;62.10;;;;;;5093272;28;20981;-73
2023/05/01 00:29:07;;;;;;;8.53;4.63;;;10.00;63.40;;;;;;5095180;28;20410;-74
2023/05/01 00:31:33;;;;;;;8.17;4.10;;;10.00;64.90;;;;;;5094333;28;20755;-75
2023/05/01 00:33:58;;;;;;;8.33;4.60;;;10.00;65.00;;;;;;5095313;28;20410;-73
2023/05/01 00:36:24;;;;;;;8.57;3.90;;;9.90;65.60;;;;;;5093987;28;20870;-74
2023/05/01 00:38:49;;;;;;;10.43;4.53;;;9.80;66.20;;;;;;5092865;28;20800;-73
2023/05/01 00:41:15;;;;;;;12.10;4.67;;;9.80;65.60;;;;;;5090995;28;20745;-73
2023/05/01 00:43:41;;;;;;;7.90;3.90;;;9.80;66.40;;;;;;5093230;28;20443;-73
2023/05/01 00:46:07;;;;;;;7.07;4.30;;;9.70;66.30;;;;;;5093825;28;20783;-73
2023/05/01 00:48:33;;;;;;;10.45;4.60;;;9.60;66.60;;;;;;5095157;28;20523;-72
2023/05/01 00:51:00;;;;;;;6.40;4.38;;;9.60;66.60;;;;;;5097915;28;20410;-74
2023/05/01 00:53:27;;;;;;;6.93;3.92;;;9.60;66.90;;;;;;5102321;28;20374;-74
2023/05/01 00:55:55;;;;;;;8.45;4.20;;;9.50;67.50;;;;;;5100041;28;20789;-74
2023/05/01 00:58:21;;;;;;;8.75;4.55;;;9.50;68.10;;;;;;5098727;28;20393;-74
2023/05/01 01:00:48;;;;;;;11.13;4.70;;;9.50;69.10;;;;;;5097653;28;20576;-74
2023/05/01 01:03:14;;;;;;;8.60;4.85;;;9.60;69.40;;;;;;5098285;28;20461;-74
2023/05/01 01:05:51;;;;;;;11.20;5.32;;;9.60;69.80;;;;;;5098621;28;20440;-74
2023/05/01 01:08:25;;;;;;;9.70;4.50;;;9.80;68.80;;;;;;5098685;28;20390;-74
2023/05/01 01:11:03;;;;;;;10.80;4.80;;;9.90;67.70;;;;;;5095259;28;20382;-71
2023/05/01 01:13:39;;;;;;;10.02;3.92;;;9.70;68.50;;;;;;5094663;28;20400;-74
2023/05/01 01:16:22;;;;;;;9.38;5.10;;;9.70;69.90;;;;;;5094189;28;20374;-75
2023/05/01 01:18:59;;;;;;;11.23;5.60;;;9.70;68.60;;;;;;5091782;28;20409;-73
2023/05/01 01:21:38;;;;;;;10.95;5.80;;;9.70;69.00;;;;;;5091445;28;20472;-74
2023/05/01 01:24:25;;;;;;;9.95;5.93;;;9.80;66.90;;;;;;5092050;28;20859;-73
2023/05/01 01:27:12;;;;;;;7.78;5.20;;;9.60;68.70;;;;;;5092031;28;20460;-74
2023/05/01 01:30:02;;;;;;;9.55;5.85;;;9.50;72.00;;;;;;5092052;28;20378;-73
2023/05/01 01:32:52;;;;;;;9.88;6.00;;;9.70;72.20;;;;;;5092012;28;20378;-72
2023/05/01 01:35:19;;;;;;;7.90;5.30;;;9.70;71.30;;;;;;5091740;28;20855;-73
2023/05/01 01:37:56;;;;;;;9.55;5.55;;;9.60;72.00;;;;;;5091591;28;20386;-73
2023/05/01 01:40:35;;;;;;;7.63;4.90;;;9.60;72.70;;;;;;5091680;28;20406;-74
2023/05/01 01:43:10;;;;;;;9.00;5.28;;;9.50;73.30;;;;;;5091258;28;20898;-74
2023/05/01 01:45:41;;;;;;;13.98;5.53;;;9.50;73.90;;;;;;5073294;28;20402;-74
2023/05/01 01:48:12;;;;;;;12.50;5.15;;;9.50;74.40;;;;;;5091661;28;20386;-74
2023/05/01 01:50:38;;;;;;;12.52;5.63;;;9.60;73.10;;;;;;5091538;28;20438;-74
2023/05/01 01:53:07;;;;;;;8.97;5.50;;;9.60;71.70;;;;;;5091040;28;20823;-74
2023/05/01 01:55:35;;;;;;;9.95;5.00;;;9.60;71.40;;;;;;5091188;28;20390;-73
2023/05/01 01:58:02;;;;;;;7.90;4.95;;;9.60;70.40;;;;;;5091411;28;20393;-74
2023/05/01 02:00:29;;;;;;;8.98;5.07;;;9.70;69.60;;;;;;5091532;28;20416;-74
2023/05/01 02:02:57;;;;;;;10.23;4.93;;;9.70;68.80;;;;;;5091175;28;20410;-74
2023/05/01 02:05:24;;;;;;;8.50;4.70;;;9.70;68.60;;;;;;5092125;28;20806;-74
2023/05/01 02:07:51;;;;;;;11.48;4.82;;;9.90;68.10;;;;;;5091958;28;20385;-74
2023/05/01 02:10:18;;;;;;;8.93;4.53;;;9.90;67.50;;;;;;5091402;28;20386;-72
2023/05/01 02:12:47;;;;;;;8.30;4.60;;;9.90;67.10;;;;;;5090957;28;20385;-74
2023/05/01 02:15:15;;;;;;;8.40;4.25;;;10.00;66.10;;;;;;5091696;28;20389;-74
2023/05/01 02:17:41;;;;;;;7.17;4.40;;;10.00;65.30;;;;;;5091707;28;20454;-74
2023/05/01 02:20:11;;;;;;;11.05;4.75;;;10.10;64.40;;;;;;5091847;28;20378;-75
2023/05/01 02:22:38;;;;;;;7.18;4.25;;;10.10;64.20;;;;;;5090562;28;20373;-74
2023/05/01 02:25:06;;;;;;;13.00;5.28;;;10.20;62.90;;;;;;5091326;28;20386;-74
2023/05/01 02:27:35;;;;;;;9.88;4.40;;;10.20;62.50;;;;;;5090665;28;20377;-74
2023/05/01 02:30:01;;;;;;;8.63;4.70;;;10.30;60.10;;;;;;5091021;28;20376;-74
2023/05/01 02:32:27;;;;;;;7.83;3.90;;;10.40;58.10;;;;;;5090274;28;21078;-72
2023/05/01 02:34:53;;;;;;;8.40;4.50;;;10.40;57.60;;;;;;5091231;28;20866;-73
2023/05/01 02:37:19;;;;;;;6.55;4.10;;;10.50;57.60;;;;;;5091102;28;20388;-74
2023/05/01 02:39:45;;;;;;;6.97;4.25;;;10.50;55.60;;;;;;5091084;28;20382;-74
2023/05/01 02:42:14;;;;;;;6.80;4.00;;;10.50;54.80;;;;;;5090451;28;20457;-74
2023/05/01 02:44:55;;;;;;;9.10;4.78;;;10.50;55.10;;;;;;5090767;28;20425;-73
2023/05/01 02:47:22;;;;;;;7.03;4.57;;;10.50;55.30;;;;;;5091469;28;20397;-73
2023/05/01 02:49:49;;;;;;;8.40;4.20;;;10.50;55.90;;;;;;5094962;28;20419;-73
2023/05/01 02:52:17;;;;;;;7.28;4.15;;;10.50;54.50;;;;;;5094270;28;20720;-74
2023/05/01 02:54:44;;;;;;;6.70;4.00;;;10.60;52.70;;;;;;5094591;28;20989;-73
2023/05/01 02:57:10;;;;;;;6.18;3.83;;;10.60;52.90;;;;;;5094621;28;20690;-75
2023/05/01 02:59:36;;;;;;;6.95;3.70;;;10.70;51.80;;;;;;5094552;28;20382;-73
2023/05/01 03:02:02;;;;;;;9.27;4.30;;;10.70;51.50;;;;;;5093896;28;20386;-73
2023/05/01 03:04:28;;;;;;;8.15;4.40;;;10.60;51.60;;;;;;5094231;28;20468;-73
2023/05/01 03:06:54;;;;;;;8.00;4.43;;;10.70;50.50;;;;;;5094191;28;20488;-75
2023/05/01 03:09:20;;;;;;;8.30;4.22;;;10.80;50.00;;;;;;5094398;28;20382;-74
2023/05/01 03:11:46;;;;;;;8.73;4.40;;;10.80;49.40;;;;;;5075900;28;20471;-72
2023/05/01 03:14:12;;;;;;;7.00;4.13;;;10.80;49.00;;;;;;5094548;28;20730;-74
2023/05/01 03:16:38;;;;;;;7.22;4.10;;;10.80;49.90;;;;;;5094527;28;20757;-74
2023/05/01 03:19:04;;;;;;;8.85;4.13;;;10.80;49.50;;;;;;5094824;28;20443;-72
2023/05/01 03:21:30;;;;;;;6.47;4.00;;;10.70;49.20;;;;;;5093865;28;20386;-72
2023/05/01 03:23:56;;;;;;;8.43;4.80;;;10.70;49.30;;;;;;5094577;28;20427;-72
2023/05/01 03:26:22;;;;;;;6.70;4.20;;;10.70;50.10;;;;;;5094892;28;20495;-72
2023/05/01 03:28:47;;;;;;;8.88;4.10;;;10.70;50.40;;;;;;5094413;28;20447;-72
2023/05/01 03:31:13;;;;;;;8.63;4.15;;;10.70;51.00;;;;;;5093673;28;20374;-72
2023/05/01 03:33:39;;;;;;;7.10;4.00;;;10.60;51.80;;;;;;5093987;28;20412;-72
2023/05/01 03:36:06;;;;;;;7.15;4.10;;;10.60;51.90;;;;;;5094246;28;20370;-71
2023/05/01 03:38:32;;;;;;;5.97;4.18;;;10.50;51.20;;;;;;5093969;28;20406;-71
2023/05/01 03:40:58;;;;;;;8.10;4.18;;;10.60;51.10;;;;;;5093537;28;20743;-70
2023/05/01 03:43:24;;;;;;;8.52;3.97;;;10.60;51.40;;;;;;5093948;28;20389;-71
2023/05/01 03:45:50;;;;;;;7.72;4.47;;;10.60;50.90;;;;;;5093704;28;20894;-72
2023/05/01 03:48:17;;;;;;;6.20;3.73;;;10.60;49.60;;;;;;5093956;28;21003;-71
2023/05/01 03:50:43;;;;;;;6.72;3.80;;;10.60;49.40;;;;;;5075429;28;20461;-71
2023/05/01 03:53:09;;;;;;;5.65;4.15;;;10.60;49.90;;;;;;5093452;28;20482;-71
2023/05/01 03:55:34;;;;;;;6.82;4.00;;;10.50;50.50;;;;;;5093742;28;20396;-72
2023/05/01 03:58:00;;;;;;;6.75;4.25;;;10.60;49.10;;;;;;5093348;28;20870;-72
2023/05/01 04:00:26;;;;;;;7.72;4.00;;;10.70;48.70;;;;;;5093351;28;20468;-72
2023/05/01 04:02:51;;;;;;;5.85;3.83;;;10.70;47.80;;;;;;5092567;28;20386;-73
2023/05/01 04:05:17;;;;;;;7.03;3.80;;;10.60;48.50;;;;;;5093193;28;20392;-72
2023/05/01 04:07:43;;;;;;;6.72;4.20;;;10.70;47.60;;;;;;5093374;28;20378;-72
2023/05/01 04:10:09;;;;;;;8.13;4.80;;;10.60;48.00;;;;;;5093388;28;20405;-72
2023/05/01 04:12:35;;;;;;;7.10;4.40;;;10.60;48.80;;;;;;5093084;28;20468;-72
2023/05/01 04:15:00;;;;;;;12.38;4.22;;;10.60;48.50;;;;;;5093206;28;20410;-72
2023/05/01 04:17:27;;;;;;;6.50;3.93;;;10.60;48.60;;;;;;5093002;28;20461;-72
2023/05/01 04:19:54;;;;;;;5.25;3.70;;;10.70;48.10;;;;;;5093405;28;20729;-72
2023/05/01 04:22:21;;;;;;;7.80;4.15;;;10.70;47.30;;;;;;5092636;28;20797;-73
2023/05/01 04:24:47;;;;;;;5.70;3.83;;;10.70;48.00;;;;;;5093248;28;20385;-73
2023/05/01 04:27:12;;;;;;;7.20;4.30;;;10.70;48.30;;;;;;5092977;28;20928;-71
2023/05/01 04:29:38;;;;;;;11.13;5.28;;;10.60;48.80;;;;;;5092983;28;20393;-71
2023/05/01 04:32:03;;;;;;;11.30;4.30;;;10.70;48.60;;;;;;5092492;28;20376;-71
2023/05/01 04:34:29;;;;;;;7.88;4.43;;;10.70;47.10;;;;;;5092992;28;20405;-70
2023/05/01 04:36:56;;;;;;;8.02;4.38;;;10.70;47.80;;;;;;5092876;28;20423;-71
2023/05/01 04:39:22;;;;;;;6.30;4.30;;;10.80;47.30;;;;;;5092966;28;20870;-72
2023/05/01 04:41:48;;;;;;;6.05;4.13;;;10.90;45.60;;;;;;5092466;28;20425;-72
2023/05/01 04:44:13;;;;;;;6.20;4.00;;;10.90;45.30;;;;;;5093035;28;20409;-73
2023/05/01 04:46:39;;;;;;;8.83;3.90;;;10.90;45.00;;;;;;5092796;28;20762;-73
2023/05/01 04:49:04;;;;;;;5.13;3.80;;;11.00;45.00;;;;;;5093149;28;20720;-73
2023/05/01 04:51:30;;;;;;;5.03;3.40;;;11.00;44.40;;;;;;5092299;28;20863;-73
2023/05/01 04:53:56;;;;;;;5.22;4.10;;;11.10;43.40;;;;;;5092616;28;20728;-73
2023/05/01 04:56:21;;;;;;;7.25;3.65;;;11.20;42.00;;;;;;5092571;28;20808;-72
2023/05/01 04:58:47;;;;;;;6.35;3.38;;;11.30;41.10;;;;;;5092533;28;20385;-70
2023/05/01 05:01:12;;;;;;;5.45;3.60;;;11.40;40.50;;;;;;5092142;28;20370;-72
2023/05/01 05:03:38;;;;;;;9.60;3.90;;;11.50;39.80;;;;;;5092433;28;20390;-71
2023/05/01 05:06:04;;;;;;;4.30;3.20;;;11.50;40.70;;;;;;5092131;28;20762;-73
2023/05/01 05:08:30;;;;;;;5.90;3.90;;;11.70;39.70;;;;;;5092315;28;20473;-72
2023/05/01 05:10:57;;;;;;;7.10;4.10;;;11.80;39.00;;;;;;5090784;28;20370;-74
2023/05/01 05:13:23;;;;;;;6.85;3.60;;;11.80;38.60;;;;;;5092187;28;20473;-75
2023/05/01 05:15:48;;;;;;;7.90;3.60;;;12.00;37.20;;;;;;5092480;28;20473;-74
2023/05/01 05:18:14;;;;;;;5.70;3.30;;;12.10;36.30;;;;;;5091926;28;20427;-74
2023/05/01 05:20:40;;;;;;;6.07;3.57;;;12.30;35.70;;;;;;5092169;28;20416;-72
2023/05/01 05:23:05;;;;;;;7.20;3.80;;;12.30;34.40;;;;;;5091819;28;20382;-72
2023/05/01 05:25:31;;;;;;;4.30;3.47;;;12.40;34.10;;;;;;5091868;28;20515;-72
2023/05/01 05:27:59;;;;;;;5.10;3.30;;;12.50;34.30;;;;;;5091860;28;20432;-71
2023/05/01 05:30:25;;;;;;;7.38;3.60;;;12.60;33.40;;;;;;5092145;28;20761;-72
2023/05/01 05:32:50;;;;;;;4.30;3.20;;;12.70;32.90;;;;;;5091203;28;20367;-72
2023/05/01 05:35:16;;;;;;;5.50;3.67;;;12.80;32.00;;;;;;5091608;28;20388;-72
2023/05/01 05:37:42;;;;;;;6.27;3.60;;;12.80;31.80;;;;;;5091821;28;20469;-71
2023/05/01 05:40:08;;;;;;;6.07;3.60;;;13.00;32.10;;;;;;5091692;28;20890;-71
2023/05/01 05:42:34;;;;;;;8.88;3.60;;;13.10;30.80;;;;;;5090863;28;20878;-72
2023/05/01 05:44:59;;;;;;;7.00;3.10;;;13.20;30.20;;;;;;5091506;28;20388;-72
2023/05/01 05:47:25;;;;;;;5.80;3.53;;;13.30;30.60;;;;;;5091335;28;20398;-72
2023/05/01 05:49:50;;;;;;;5.63;2.93;;;13.30;30.10;;;;;;5091708;28;20385;-73
2023/05/01 05:52:16;;;;;;;6.22;3.28;;;13.30;29.70;;;;;;5093167;28;20843;-71
2023/05/01 05:54:42;;;;;;;8.48;3.30;;;13.40;30.00;;;;;;5096008;28;20445;-72
2023/05/01 05:57:07;;;;;;;8.40;3.50;;;13.60;28.70;;;;;;5095003;28;20381;-72
2023/05/01 05:59:33;;;;;;;7.10;3.63;;;13.80;28.60;;;;;;5093016;28;20429;-72
2023/05/01 06:01:59;;;;;;;7.68;3.65;;;13.80;27.60;;;;;;5092336;28;20451;-72
2023/05/01 06:04:24;;;;;;;7.05;3.40;;;14.00;27.00;;;;;;5093836;28;20419;-74
2023/05/01 06:06:51;;;;;;;5.97;3.15;;;14.00;26.80;;;;;;5094026;28;20401;-72
2023/05/01 06:09:17;;;;;;;7.35;3.70;;;14.10;26.10;;;;;;5095834;28;20505;-72
2023/05/01 06:11:44;;;;;;;7.55;3.50;;;14.20;25.90;;;;;;5095062;28;20374;-72
2023/05/01 06:14:09;;;;;;;4.80;3.43;;;14.30;25.20;;;;;;5096345;28;20378;-72
2023/05/01 06:16:36;;;;;;;5.13;3.47;;;14.40;25.40;;;;;;5097171;28;20416;-73
2023/05/01 06:19:01;;;;;;;5.05;3.03;;;14.50;25.00;;;;;;5094963;28;20431;-71
2023/05/01 06:21:27;;;;;;;3.40;2.78;;;14.50;24.90;;;;;;5094881;28;20389;-73
2023/05/01 06:23:52;;;;;;;6.03;3.30;;;14.70;24.90;;;;;;5099226;28;20400;-73
2023/05/01 06:26:18;;;;;;;5.20;2.80;;;14.70;24.60;;;;;;5105855;28;20405;-72
2023/05/01 06:28:44;;;;;;;6.30;3.53;;;14.80;23.60;;;;;;5097439;28;20386;-73
2023/05/01 06:31:09;;;;;;;4.50;2.95;;;14.90;23.00;;;;;;5099944;28;20456;-73
2023/05/01 06:33:35;;;;;;;5.60;3.40;;;15.00;23.00;;;;;;5099042;28;20385;-72
2023/05/01 06:36:01;;;;;;;7.33;3.33;;;15.00;23.70;;;;;;5100636;28;20390;-72
2023/05/01 06:38:26;;;;;;;6.20;3.00;;;15.10;22.60;;;;;;5092352;28;20846;-71
2023/05/01 06:40:52;;;;;;;4.53;2.90;;;15.20;22.50;;;;;;5090425;28;20429;-73
2023/05/01 06:43:18;;;;;;;5.35;3.50;;;15.30;22.50;;;;;;5091017;28;20443;-71
2023/05/01 06:45:44;;;;;;;6.30;3.30;;;15.20;22.00;;;;;;5091182;28;20478;-72
2023/05/01 06:48:10;;;;;;;6.57;3.60;;;15.20;22.10;;;;;;5091314;28;20453;-70
2023/05/01 06:50:35;;;;;;;6.63;3.40;;;15.10;22.80;;;;;;5092248;28;20459;-72
2023/05/01 06:53:01;;;;;;;4.40;3.10;;;15.30;21.30;;;;;;5091899;28;20413;-71
2023/05/01 06:55:30;;;;;;;8.45;3.50;;;15.30;21.30;;;;;;5091856;28;20378;-72
2023/05/01 06:57:56;;;;;;;5.00;3.58;;;15.50;21.00;;;;;;5091765;28;20465;-71
2023/05/01 07:00:22;;;;;;;6.68;3.40;;;15.60;21.00;;;;;;5091557;28;20405;-72
2023/05/01 07:02:48;;;;;;;6.90;3.50;;;15.80;20.30;;;;;;5091034;28;20415;-73
2023/05/01 07:05:13;;;;;;;7.20;3.90;;;15.80;20.10;;;;;;5091707;28;20390;-71
2023/05/01 07:07:39;;;;;;;6.50;3.50;;;15.80;20.00;;;;;;5091812;28;20378;-71
2023/05/01 07:10:05;;;;;;;5.25;3.20;;;15.80;20.90;;;;;;5091593;28;20811;-73
2023/05/01 07:12:31;;;;;;;4.57;3.00;;;15.80;20.30;;;;;;5090828;28;20417;-72
2023/05/01 07:14:56;;;;;;;6.75;3.17;;;16.10;19.90;;;;;;5091389;28;20443;-71
2023/05/01 07:17:22;;;;;;;6.35;4.10;;;16.00;20.10;;;;;;5092630;28;20817;-72
2023/05/01 07:19:49;;;;;;;5.07;3.40;;;16.00;20.60;;;;;;5094979;28;20406;-72
2023/05/01 07:22:14;;;;;;;6.25;3.90;;;16.00;20.50;;;;;;5094162;28;20785;-72
2023/05/01 07:24:40;;;;;;;8.50;3.40;;;16.20;19.90;;;;;;5072934;28;20382;-73
2023/05/01 07:27:06;;;;;;;6.47;3.57;;;16.30;19.70;;;;;;5090895;28;20677;-73
2023/05/01 07:29:32;;;;;;;6.10;3.30;;;16.40;19.80;;;;;;5091066;28;20788;-72
2023/05/01 07:31:57;;;;;;;6.45;3.50;;;16.50;19.40;;;;;;5093030;28;20382;-74
2023/05/01 07:34:23;;;;;;;5.43;3.58;;;16.50;19.10;;;;;;5100275;28;20408;-74
2023/05/01 07:36:48;;;;;;;7.57;3.60;;;16.60;18.80;;;;;;5099072;28;20386;-73
2023/05/01 07:39:14;;;;;;;8.37;3.00;;;16.70;18.30;;;;;;5097828;28;20712;-73
2023/05/01 07:41:39;;;;;;;6.25;3.70;;;17.00;17.70;;;;;;5094106;28;20392;-71
2023/05/01 07:44:05;;;;;;;5.43;3.50;;;17.20;18.00;;;;;;5094184;28;20462;-72
2023/05/01 07:46:31;;;;;;;4.43;3.20;;;17.50;17.10;;;;;;5094378;28;20461;-72
2023/05/01 07:48:56;;;;;;;3.80;3.20;;;17.50;17.40;;;;;;5093971;28;20378;-72
2023/05/01 07:51:22;;;;;;;5.47;3.30;;;17.60;17.10;;;;;;5093410;28;20386;-72
2023/05/01 07:53:48;;;;;;;7.30;3.50;;;17.70;16.80;;;;;;5093980;28;20370;-73
2023/05/01 07:56:14;;;;;;;6.72;3.60;;;18.00;16.60;;;;;;5093902;28;20378;-73
2023/05/01 07:58:41;;;;;;;5.20;3.15;;;18.20;15.80;;;;;;5093982;28;20387;-72
2023/05/01 08:01:07;;;;;;;6.40;3.13;;;18.40;14.60;;;;;;5075409;28;20432;-71
2023/05/01 08:03:33;;;;;;;7.77;3.50;;;18.50;14.30;;;;;;5094100;28;20386;-71
2023/05/01 08:05:59;;;;;;;6.90;3.10;;;18.40;14.40;;;;;;5093645;28;20406;-73
2023/05/01 08:08:25;;;;;;;4.47;3.30;;;18.50;14.50;;;;;;5075279;28;20425;-71
2023/05/01 08:10:51;;;;;;;13.02;3.53;;;18.60;14.30;;;;;;5093476;28;20385;-73
2023/05/01 08:13:17;;;;;;;7.15;3.20;;;18.80;13.90;;;;;;5093639;28;20378;-71
2023/05/01 08:15:44;;;;;;;4.38;3.00;;;18.90;13.90;;;;;;5093634;28;20871;-75
2023/05/01 08:18:10;;;;;;;5.80;3.37;;;18.90;13.80;;;;;;5093216;28;20398;-72
2023/05/01 08:20:35;;;;;;;8.93;3.80;;;18.90;13.10;;;;;;5093350;28;20874;-72
2023/05/01 08:23:01;;;;;;;6.65;3.20;;;19.00;13.40;;;;;;5092006;28;20704;-72
2023/05/01 08:25:27;;;;;;;6.67;4.00;;;19.00;13.30;;;;;;5092536;28;20390;-72
2023/05/01 08:27:52;;;;;;;8.87;3.30;;;19.20;13.30;;;;;;5093497;28;20410;-73
2023/05/01 08:30:18;;;;;;;6.63;3.70;;;19.30;13.00;;;;;;5093353;28;20447;-74
2023/05/01 08:32:43;;;;;;;7.10;4.10;;;19.50;13.40;;;;;;5093356;28;20394;-72
2023/05/01 08:35:09;;;;;;;9.50;3.60;;;19.60;13.10;;;;;;5095975;28;20431;-72
2023/05/01 08:37:35;;;;;;;8.73;3.50;;;19.70;12.10;;;;;;5094138;28;20398;-73
2023/05/01 08:40:07;;;;;;;5.17;3.00;;;19.60;11.60;;;;;;5094127;28;20393;-72
2023/05/01 08:42:37;;;;;;;6.15;3.20;;;19.90;11.70;;;;;;5092797;28;20920;-72
2023/05/01 08:45:06;;;;;;;5.85;3.35;;;19.90;11.00;;;;;;5090119;28;20401;-72
2023/05/01 08:47:37;;;;;;;6.70;3.80;;;19.70;12.10;;;;;;5090608;28;20906;-71
2023/05/01 08:50:03;;;;;;;4.93;3.60;;;19.80;11.60;;;;;;5090482;28;20401;-71
2023/05/01 08:52:30;;;;;;;5.60;3.50;;;19.80;11.90;;;;;;5071343;28;20838;-74
2023/05/01 08:54:58;;;;;;;5.40;3.30;;;19.80;12.00;;;;;;5089962;28;20378;-71
2023/05/01 08:57:26;;;;;;;8.65;3.35;;;19.90;11.70;;;;;;5089674;28;20394;-70
2023/05/01 08:59:55;;;;;;;4.80;3.40;;;20.10;11.30;;;;;;5072435;28;20867;-72
2023/05/01 09:02:23;;;;;;;11.13;4.20;;;20.20;11.00;;;;;;5076772;28;20400;-71
2023/05/01 09:04:51;;;;;;;7.20;3.88;;;20.20;10.60;;;;;;5103132;28;20431;-73
2023/05/01 09:07:16;;;;;;;5.88;3.30;;;20.30;11.20;;;;;;5103937;28;20406;-72
2023/05/01 09:09:42;;;;;;;4.60;3.40;;;20.50;10.30;;;;;;5101783;28;20387;-72
2023/05/01 09:12:24;;;;;;;10.75;4.00;;;20.30;11.00;;;;;;5100081;28;20446;-71
2023/05/01 09:14:52;;;;;;;12.37;4.20;;;20.30;11.50;;;;;;5097749;28;20411;-71
2023/05/01 09:17:20;;;;;;;8.65;4.47;;;20.20;10.50;;;;;;5097306;28;20390;-69
2023/05/01 09:19:46;;;;;;;5.25;4.10;;;20.20;10.70;;;;;;5077923;28;20394;-71
2023/05/01 09:22:11;;;;;;;7.53;3.90;;;20.50;11.50;;;;;;5075670;28;20394;-70
2023/05/01 09:24:37;;;;;;;5.60;3.80;;;20.40;10.80;;;;;;5095291;28;20382;-72
2023/05/01 09:27:02;;;;;;;8.43;4.40;;;20.50;10.50;;;;;;5095365;28;20481;-71
2023/05/01 09:29:38;;;;;;;8.43;4.45;;;20.70;10.80;;;;;;5093880;28;20871;-72
2023/05/01 09:32:15;;;;;;;7.53;3.88;;;20.60;10.70;;;;;;5093716;28;20437;-71
2023/05/01 09:34:42;;;;;;;9.27;4.35;;;20.80;10.00;;;;;;5093573;28;20394;-71
2023/05/01 09:37:13;;;;;;;7.13;3.80;;;20.80;9.80;;;;;;5086603;28;20391;-71
2023/05/01 09:39:39;;;;;;;10.63;4.30;;;20.80;9.80;;;;;;5086930;28;20455;-72
2023/05/01 09:42:05;;;;;;;6.40;3.90;;;21.10;10.10;;;;;;5072692;28;20390;-71
2023/05/01 09:44:31;;;;;;;6.28;4.00;;;21.30;9.30;;;;;;5088855;28;20390;-73
2023/05/01 09:46:56;;;;;;;6.13;4.10;;;21.30;9.10;;;;;;5070181;28;20423;-72
2023/05/01 09:49:46;;;;;;;9.40;3.90;;;21.30;10.20;;;;;;5089020;28;20743;-71
2023/05/01 09:52:13;;;;;;;8.20;3.40;;;21.30;8.70;;;;;;5088372;28;20397;-72
2023/05/01 09:54:38;;;;;;;6.18;3.65;;;21.30;8.40;;;;;;5088773;28;20473;-72
2023/05/01 09:57:04;;;;;;;7.70;5.17;;;21.40;9.00;;;;;;5088156;28;20481;-73
2023/05/01 09:59:33;;;;;;;5.60;4.03;;;21.40;9.40;;;;;;5088276;28;20459;-72
2023/05/01 10:01:58;;;;;;;6.32;4.35;;;21.50;8.80;;;;;;5086039;28;20386;-74
2023/05/01 10:04:31;;;;;;;5.97;3.80;;;21.60;9.50;;;;;;5070066;28;20438;-72
2023/05/01 10:06:59;;;;;;;8.68;4.68;;;21.50;9.90;;;;;;5088086;28;20604;-72
2023/05/01 10:09:28;;;;;;;7.72;4.80;;;21.40;9.20;;;;;;5087690;28;20389;-73
2023/05/01 10:11:56;;;;;;;7.10;4.38;;;21.50;9.00;;;;;;5088414;28;20378;-73
2023/05/01 10:14:27;;;;;;;7.43;4.70;;;21.50;9.20;;;;;;5088400;28;20539;-72
2023/05/01 10:16:52;;;;;;;6.83;4.40;;;21.70;9.30;;;;;;5089726;28;20379;-72
2023/05/01 10:19:19;;;;;;;9.10;4.77;;;21.60;9.70;;;;;;5024067;28;1846079;-72
2023/05/01 10:21:44;;;;;;;8.70;5.00;;;21.60;8.90;;;;;;5088706;28;20397;-71
2023/05/01 10:24:10;;;;;;;8.73;4.50;;;21.70;9.00;;;;;;5088866;28;20402;-73
2023/05/01 10:26:36;;;;;;;6.15;3.90;;;21.60;9.80;;;;;;5089153;28;20408;-73
2023/05/01 10:29:02;;;;;;;7.55;4.40;;;21.70;9.40;;;;;;5088744;28;20436;-73
2023/05/01 10:31:31;;;;;;;6.30;4.05;;;21.90;9.00;;;;;;5089351;28;20493;-72
2023/05/01 10:33:57;;;;;;;7.00;4.90;;;21.60;9.20;;;;;;5088772;28;20816;-73
2023/05/01 10:36:27;;;;;;;6.10;4.70;;;21.40;9.50;;;;;;5088954;28;20476;-72
2023/05/01 10:38:53;;;;;;;6.80;3.55;;;21.40;10.10;;;;;;5089416;28;20402;-72
2023/05/01 10:41:56;;;;;;;6.35;4.05;;;21.60;9.50;;;;;;5088495;28;20402;-71
2023/05/01 10:44:23;;;;;;;4.93;3.30;;;21.60;8.60;;;;;;5088927;28;20380;-73
2023/05/01 10:46:49;;;;;;;8.20;3.90;;;21.50;9.70;;;;;;5089721;28;20405;-72
2023/05/01 10:49:15;;;;;;;7.00;3.67;;;21.50;10.00;;;;;;5071380;28;20394;-73
2023/05/01 10:52:07;;;;;;;6.30;3.80;;;21.00;10.40;;;;;;5088452;28;20882;-72
2023/05/01 10:54:33;;;;;;;6.40;3.70;;;20.90;10.60;;;;;;5086401;28;20961;-71
2023/05/01 10:57:02;;;;;;;6.53;3.65;;;20.90;10.40;;;;;;5089424;28;20464;-77
2023/05/01 10:59:59;;;;;;;4.45;3.40;;;21.10;10.40;;;;;;5089856;28;20390;-73
2023/05/01 11:02:25;;;;;;;5.80;3.88;;;21.50;9.50;;;;;;5088030;28;20408;-71
2023/05/01 11:04:52;;;;;;;5.40;3.40;;;21.70;9.20;;;;;;5088917;28;20386;-73
2023/05/01 11:07:19;;;;;;;5.18;3.70;;;22.00;8.60;;;;;;5089389;28;20410;-72
2023/05/01 11:09:45;;;;;;;7.55;3.50;;;22.30;7.70;;;;;;5092183;28;20455;-73
2023/05/01 11:12:12;;;;;;;5.05;3.60;;;22.30;8.20;;;;;;5092545;28;20876;-71
2023/05/01 11:14:53;;;;;;;3.92;3.20;;;21.90;8.30;;;;;;5092330;28;20456;-72
2023/05/01 11:17:40;;;;;;;5.63;3.00;;;21.60;8.40;;;;;;5092304;28;20385;-73
2023/05/01 11:20:32;;;;;;;3.25;2.50;;;21.60;6.90;;;;;;5092359;28;20408;-72
2023/05/01 11:22:57;;;;;;;3.78;2.30;;;21.60;6.90;;;;;;5090971;28;20423;-72
2023/05/01 11:25:26;;;;;;;7.00;2.70;;;21.60;7.20;;;;;;5091714;28;20374;-72
2023/05/01 11:27:54;;;;;;;5.07;2.72;;;21.70;7.40;;;;;;5092694;28;20444;-73
2023/05/01 11:30:20;;;;;;;3.50;3.00;;;22.20;6.30;;;;;;5074578;28;20385;-72
2023/05/01 11:32:48;;;;;;;4.30;2.90;;;22.20;7.00;;;;;;5091428;28;20382;-72
2023/05/01 11:35:18;;;;;;;4.38;3.35;;;22.10;6.70;;;;;;5091986;28;20389;-74
2023/05/01 11:37:45;;;;;;;5.07;3.15;;;22.20;7.90;;;;;;5090826;28;20401;-73
2023/05/01 11:40:31;;;;;;;6.70;3.80;;;22.20;7.70;;;;;;5073785;28;20518;-71
2023/05/01 11:43:01;;;;;;;5.75;4.00;;;22.20;7.90;;;;;;5090857;28;20454;-72
2023/05/01 11:45:27;;;;;;;4.53;4.13;;;22.10;9.10;;;;;;5072943;28;20796;-72
2023/05/01 11:47:53;;;;;;;6.60;4.10;;;22.10;8.70;;;;;;5091759;28;20735;-73
2023/05/01 11:50:20;;;;;;;4.83;3.37;;;22.40;8.30;;;;;;5080399;28;20394;-73
2023/05/01 11:52:53;;;;;;;4.10;3.38;;;22.60;7.50;;;;;;5077178;28;20406;-74
2023/05/01 11:55:30;;;;;;;5.85;3.40;;;22.40;6.80;;;;;;5079883;28;20404;-73
2023/05/01 11:57:56;;;;;;;4.32;3.30;;;22.30;7.60;;;;;;5104521;28;20867;-72
2023/05/01 12:00:28;;;;;;;5.70;3.90;;;22.50;7.50;;;;;;5100794;28;20406;-74
2023/05/01 12:03:07;;;;;;;6.45;3.40;;;22.30;7.90;;;;;;5102513;28;20411;-73
2023/05/01 12:05:35;;;;;;;5.63;2.90;;;22.30;6.80;;;;;;5101625;28;20401;-73
2023/05/01 12:08:10;;;;;;;4.30;2.53;;;22.50;6.70;;;;;;5098848;28;20685;-73
2023/05/01 12:10:37;;;;;;;3.33;2.05;;;22.50;5.80;;;;;;5099717;28;20767;-69
2023/05/01 12:13:04;;;;;;;3.17;2.83;;;22.40;5.40;;;;;;5107579;28;20389;-71
2023/05/01 12:15:33;;;;;;;5.22;2.97;;;22.20;6.10;;;;;;5120120;28;20382;-72
2023/05/01 12:17:58;;;;;;;3.20;2.90;;;22.20;6.00;;;;;;5102586;28;20911;-72
2023/05/01 12:20:39;;;;;;;4.00;2.60;;;22.20;6.40;;;;;;5116661;28;20380;-72
2023/05/01 12:23:06;;;;;;;3.58;3.05;;;22.30;6.10;;;;;;5113085;28;20406;-72
2023/05/01 12:25:33;;;;;;;3.10;2.60;;;22.10;5.70;;;;;;5113977;28;20412;-73
2023/05/01 12:28:07;;;;;;;3.97;2.45;;;22.10;5.80;;;;;;5113676;28;20527;-73
2023/05/01 12:30:33;;;;;;;5.22;3.38;;;22.10;6.00;;;;;;5113620;28;20387;-72
2023/05/01 12:33:06;;;;;;;4.70;3.40;;;21.80;6.30;;;;;;5113189;28;20404;-72
2023/05/01 12:35:32;;;;;;;4.78;3.10;;;21.30;7.30;;;;;;5113840;28;20883;-72
2023/05/01 12:37:58;;;;;;;8.52;3.58;;;21.10;8.90;;;;;;5113686;28;20421;-73
2023/05/01 12:40:25;;;;;;;4.80;3.20;;;21.20;8.40;;;;;;5113524;28;20380;-74
2023/05/01 12:42:56;;;;;;;3.45;3.05;;;21.30;8.50;;;;;;5112827;28;20714;-72
2023/05/01 12:45:22;;;;;;;4.60;3.10;;;21.50;8.00;;;;;;5113394;28;20818;-73
2023/05/01 12:47:48;;;;;;;5.10;3.10;;;21.60;7.80;;;;;;5113161;28;20376;-72
2023/05/01 12:50:14;;;;;;;7.20;3.08;;;21.40;7.90;;;;;;5113150;28;20814;-73
2023/05/01 12:52:40;;;;;;;5.23;3.00;;;21.30;7.90;;;;;;5112539;28;20491;-73
2023/05/01 12:55:07;;;;;;;6.87;3.40;;;21.20;9.00;;;;;;5113223;28;20384;-72